Jose de San Martin, Argentina
Current Conditions -  °F | °C
As of 8:00 PM on Saturday 22 Nov 2014 (Local Time) from SCAP Reporting Station
Clear Clear  
Wind Chill: 55°   Ceiling: Unl
Heat Index: 55°   Visibility: NA
Dew Point: 43°   Wind: 8mph
Humidity: 63%   Direction: 200°SSW
Pressure: 29.97"   Gusts: NA
Location:  44.03°S, 70.48°W
Report Text: SCAP 222300Z AUTO 20007KT 140V260 //// // NSC 13/06 Q1015
Loading
Personal Weather Stations






























Interactive Weather Map New forecast layout! Learn more

10-Day Weather Forecast

Advertisements
Track Severe Weather on mobile